sensor_id;sensor_type;location;lat;lon;timestamp;temperature;humidity
10095;DHT22;5086;50.830;7.102;2023-04-24T00:00:39;12.00;99.90
10095;DHT22;5086;50.830;7.102;2023-04-24T00:03:06;12.00;99.90
10095;DHT22;5086;50.830;7.102;2023-04-24T00:05:35;12.00;99.90
10095;DHT22;5086;50.830;7.102;2023-04-24T00:08:04;12.00;99.90
10095;DHT22;5086;50.830;7.102;2023-04-24T00:10:31;12.00;99.90
10095;DHT22;5086;50.830;7.102;2023-04-24T00:12:59;11.90;99.90
10095;DHT22;5086;50.830;7.102;2023-04-24T00:15:28;11.90;99.90
10095;DHT22;5086;50.830;7.102;2023-04-24T00:18:01;11.90;99.90
10095;DHT22;5086;50.830;7.102;2023-04-24T00:20:29;11.90;99.90
10095;DHT22;5086;50.830;7.102;2023-04-24T00:22:59;11.90;99.90
10095;DHT22;5086;50.830;7.102;2023-04-24T00:25:28;11.80;99.90
10095;DHT22;5086;50.830;7.102;2023-04-24T00:27:55;11.70;99.90
10095;DHT22;5086;50.830;7.102;2023-04-24T00:30:22;11.70;99.90
10095;DHT22;5086;50.830;7.102;2023-04-24T00:32:55;11.70;99.90
10095;DHT22;5086;50.830;7.102;2023-04-24T00:35:22;11.80;99.90
10095;DHT22;5086;50.830;7.102;2023-04-24T00:37:49;11.70;99.90
10095;DHT22;5086;50.830;7.102;2023-04-24T00:40:19;11.60;99.90
10095;DHT22;5086;50.830;7.102;2023-04-24T00:42:46;11.60;99.90
10095;DHT22;5086;50.830;7.102;2023-04-24T00:45:13;11.70;99.90
10095;DHT22;5086;50.830;7.102;2023-04-24T00:47:42;11.70;99.90
10095;DHT22;5086;50.830;7.102;2023-04-24T00:50:09;11.70;99.90
10095;DHT22;5086;50.830;7.102;2023-04-24T00:52:36;11.70;99.90
10095;DHT22;5086;50.830;7.102;2023-04-24T00:55:06;11.70;99.90
10095;DHT22;5086;50.830;7.102;2023-04-24T00:57:38;11.70;99.90
10095;DHT22;5086;50.830;7.102;2023-04-24T01:00:08;11.80;99.90
10095;DHT22;5086;50.830;7.102;2023-04-24T01:02:38;11.80;99.90
10095;DHT22;5086;50.830;7.102;2023-04-24T01:05:09;11.80;99.90
10095;DHT22;5086;50.830;7.102;2023-04-24T01:07:37;11.80;99.90
10095;DHT22;5086;50.830;7.102;2023-04-24T01:10:04;11.80;99.90
10095;DHT22;5086;50.830;7.102;2023-04-24T01:12:33;11.80;99.90
10095;DHT22;5086;50.830;7.102;2023-04-24T01:15:03;11.80;99.90
10095;DHT22;5086;50.830;7.102;2023-04-24T01:17:30;11.80;99.90
10095;DHT22;5086;50.830;7.102;2023-04-24T01:19:58;11.80;99.90
10095;DHT22;5086;50.830;7.102;2023-04-24T01:22:27;11.90;99.90
10095;DHT22;5086;50.830;7.102;2023-04-24T01:24:54;11.90;99.90
10095;DHT22;5086;50.830;7.102;2023-04-24T01:27:21;11.90;99.90
10095;DHT22;5086;50.830;7.102;2023-04-24T01:29:51;11.90;99.90
10095;DHT22;5086;50.830;7.102;2023-04-24T01:32:18;11.80;99.90
10095;DHT22;5086;50.830;7.102;2023-04-24T01:34:45;11.80;99.90
10095;DHT22;5086;50.830;7.102;2023-04-24T01:37:13;11.80;99.90
10095;DHT22;5086;50.830;7.102;2023-04-24T01:39:42;11.80;99.90
10095;DHT22;5086;50.830;7.102;2023-04-24T01:42:09;11.60;99.90
10095;DHT22;5086;50.830;7.102;2023-04-24T01:44:36;11.60;99.90
10095;DHT22;5086;50.830;7.102;2023-04-24T01:47:03;11.60;99.90
10095;DHT22;5086;50.830;7.102;2023-04-24T01:49:30;11.60;99.90
10095;DHT22;5086;50.830;7.102;2023-04-24T01:51:58;11.60;99.90
10095;DHT22;5086;50.830;7.102;2023-04-24T01:54:25;11.50;99.90
10095;DHT22;5086;50.830;7.102;2023-04-24T01:56:53;11.50;99.90
10095;DHT22;5086;50.830;7.102;2023-04-24T01:59:20;11.40;99.90
10095;DHT22;5086;50.830;7.102;2023-04-24T02:01:48;11.40;99.90
10095;DHT22;5086;50.830;7.102;2023-04-24T02:04:15;11.30;99.90
10095;DHT22;5086;50.830;7.102;2023-04-24T02:06:41;11.30;99.90
10095;DHT22;5086;50.830;7.102;2023-04-24T02:09:08;11.20;99.90
10095;DHT22;5086;50.830;7.102;2023-04-24T02:11:36;11.20;99.90
10095;DHT22;5086;50.830;7.102;2023-04-24T02:14:04;11.10;99.90
10095;DHT22;5086;50.830;7.102;2023-04-24T02:16:31;11.10;99.90
10095;DHT22;5086;50.830;7.102;2023-04-24T02:19:02;11.10;99.90
10095;DHT22;5086;50.830;7.102;2023-04-24T02:21:29;11.00;99.90
10095;DHT22;5086;50.830;7.102;2023-04-24T02:23:56;11.00;99.90
10095;DHT22;5086;50.830;7.102;2023-04-24T02:26:23;11.00;99.90
10095;DHT22;5086;50.830;7.102;2023-04-24T02:28:50;10.90;99.90
10095;DHT22;5086;50.830;7.102;2023-04-24T02:31:18;10.90;99.90
10095;DHT22;5086;50.830;7.102;2023-04-24T02:33:45;10.80;99.90
10095;DHT22;5086;50.830;7.102;2023-04-24T02:36:12;10.60;99.90
10095;DHT22;5086;50.830;7.102;2023-04-24T02:38:39;10.50;99.90
10095;DHT22;5086;50.830;7.102;2023-04-24T02:41:06;10.40;99.90
10095;DHT22;5086;50.830;7.102;2023-04-24T02:43:33;10.30;99.90
10095;DHT22;5086;50.830;7.102;2023-04-24T02:46:00;10.30;99.90
10095;DHT22;5086;50.830;7.102;2023-04-24T02:48:28;10.20;99.90
10095;DHT22;5086;50.830;7.102;2023-04-24T02:50:55;10.10;99.90
10095;DHT22;5086;50.830;7.102;2023-04-24T02:53:23;10.10;99.90
10095;DHT22;5086;50.830;7.102;2023-04-24T02:55:49;10.00;99.90
10095;DHT22;5086;50.830;7.102;2023-04-24T02:58:16;10.00;99.90
10095;DHT22;5086;50.830;7.102;2023-04-24T03:00:45;10.00;99.90
10095;DHT22;5086;50.830;7.102;2023-04-24T03:03:12;10.00;99.90
10095;DHT22;5086;50.830;7.102;2023-04-24T03:05:40;10.00;99.90
10095;DHT22;5086;50.830;7.102;2023-04-24T03:08:10;10.00;99.90
10095;DHT22;5086;50.830;7.102;2023-04-24T03:10:37;10.00;99.90
10095;DHT22;5086;50.830;7.102;2023-04-24T03:13:03;10.00;99.90
10095;DHT22;5086;50.830;7.102;2023-04-24T03:15:32;10.10;99.90
10095;DHT22;5086;50.830;7.102;2023-04-24T03:17:59;10.00;99.90
10095;DHT22;5086;50.830;7.102;2023-04-24T03:20:26;10.00;99.90
10095;DHT22;5086;50.830;7.102;2023-04-24T03:22:56;10.00;99.90
10095;DHT22;5086;50.830;7.102;2023-04-24T03:25:22;10.00;99.90
10095;DHT22;5086;50.830;7.102;2023-04-24T03:27:49;9.90;99.90
10095;DHT22;5086;50.830;7.102;2023-04-24T03:30:16;9.90;99.90
10095;DHT22;5086;50.830;7.102;2023-04-24T03:32:43;9.80;99.90
10095;DHT22;5086;50.830;7.102;2023-04-24T03:35:10;9.80;99.90
10095;DHT22;5086;50.830;7.102;2023-04-24T03:37:37;9.70;99.90
10095;DHT22;5086;50.830;7.102;2023-04-24T03:40:07;9.70;99.90
10095;DHT22;5086;50.830;7.102;2023-04-24T03:42:34;9.70;99.90
10095;DHT22;5086;50.830;7.102;2023-04-24T03:45:01;9.60;99.90
10095;DHT22;5086;50.830;7.102;2023-04-24T03:47:28;9.40;99.90
10095;DHT22;5086;50.830;7.102;2023-04-24T03:49:54;9.40;99.90
10095;DHT22;5086;50.830;7.102;2023-04-24T03:52:21;9.40;99.90
10095;DHT22;5086;50.830;7.102;2023-04-24T03:54:51;9.40;99.90
10095;DHT22;5086;50.830;7.102;2023-04-24T03:57:19;9.30;99.90
10095;DHT22;5086;50.830;7.102;2023-04-24T03:59:46;9.20;99.90
10095;DHT22;5086;50.830;7.102;2023-04-24T04:02:13;9.10;99.90
10095;DHT22;5086;50.830;7.102;2023-04-24T04:04:40;9.10;99.90
10095;DHT22;5086;50.830;7.102;2023-04-24T04:07:07;9.00;99.90
10095;DHT22;5086;50.830;7.102;2023-04-24T04:09:36;9.00;99.90
10095;DHT22;5086;50.830;7.102;2023-04-24T04:12:03;9.00;99.90
10095;DHT22;5086;50.830;7.102;2023-04-24T04:14:31;9.00;99.90
10095;DHT22;5086;50.830;7.102;2023-04-24T04:16:58;9.00;99.90
10095;DHT22;5086;50.830;7.102;2023-04-24T04:19:25;9.10;99.90
10095;DHT22;5086;50.830;7.102;2023-04-24T04:21:51;9.10;99.90
10095;DHT22;5086;50.830;7.102;2023-04-24T04:24:21;9.10;99.90
10095;DHT22;5086;50.830;7.102;2023-04-24T04:26:49;9.10;99.90
10095;DHT22;5086;50.830;7.102;2023-04-24T04:29:16;9.10;99.90
10095;DHT22;5086;50.830;7.102;2023-04-24T04:31:44;9.10;99.90
10095;DHT22;5086;50.830;7.102;2023-04-24T04:34:14;9.10;99.90
10095;DHT22;5086;50.830;7.102;2023-04-24T04:36:41;9.20;99.90
10095;DHT22;5086;50.830;7.102;2023-04-24T04:39:09;9.30;99.90
10095;DHT22;5086;50.830;7.102;2023-04-24T04:41:48;9.30;99.90
10095;DHT22;5086;50.830;7.102;2023-04-24T04:44:34;9.30;99.90
10095;DHT22;5086;50.830;7.102;2023-04-24T04:47:09;9.30;99.90
10095;DHT22;5086;50.830;7.102;2023-04-24T04:49:43;9.30;99.90
10095;DHT22;5086;50.830;7.102;2023-04-24T04:52:10;9.30;99.90
10095;DHT22;5086;50.830;7.102;2023-04-24T04:54:37;9.30;99.90
10095;DHT22;5086;50.830;7.102;2023-04-24T04:57:06;9.30;99.90
10095;DHT22;5086;50.830;7.102;2023-04-24T04:59:33;9.30;99.90
10095;DHT22;5086;50.830;7.102;2023-04-24T05:02:01;9.40;99.90
10095;DHT22;5086;50.830;7.102;2023-04-24T05:04:32;9.40;99.90
10095;DHT22;5086;50.830;7.102;2023-04-24T05:07:07;9.40;99.90
10095;DHT22;5086;50.830;7.102;2023-04-24T05:09:35;9.50;99.90
10095;DHT22;5086;50.830;7.102;2023-04-24T05:12:09;9.60;99.90
10095;DHT22;5086;50.830;7.102;2023-04-24T05:14:46;9.60;99.90
10095;DHT22;5086;50.830;7.102;2023-04-24T05:17:18;9.70;99.90
10095;DHT22;5086;50.830;7.102;2023-04-24T05:19:46;9.60;99.90
10095;DHT22;5086;50.830;7.102;2023-04-24T05:22:16;9.60;99.90
10095;DHT22;5086;50.830;7.102;2023-04-24T05:24:48;9.60;99.90
10095;DHT22;5086;50.830;7.102;2023-04-24T05:27:22;9.60;99.90
10095;DHT22;5086;50.830;7.102;2023-04-24T05:29:49;9.60;99.90
10095;DHT22;5086;50.830;7.102;2023-04-24T05:32:21;9.70;99.90
10095;DHT22;5086;50.830;7.102;2023-04-24T05:34:49;9.70;99.90
10095;DHT22;5086;50.830;7.102;2023-04-24T05:37:18;9.60;99.90
10095;DHT22;5086;50.830;7.102;2023-04-24T05:40:21;9.80;99.90
10095;DHT22;5086;50.830;7.102;2023-04-24T05:46:12;9.90;99.90
10095;DHT22;5086;50.830;7.102;2023-04-24T05:48:39;9.90;99.90
10095;DHT22;5086;50.830;7.102;2023-04-24T05:51:09;9.90;99.90
10095;DHT22;5086;50.830;7.102;2023-04-24T05:53:36;9.90;99.90
10095;DHT22;5086;50.830;7.102;2023-04-24T05:56:05;9.90;99.90
10095;DHT22;5086;50.830;7.102;2023-04-24T05:58:31;9.90;99.90
10095;DHT22;5086;50.830;7.102;2023-04-24T06:00:58;9.90;99.90
10095;DHT22;5086;50.830;7.102;2023-04-24T06:03:27;9.80;99.90
10095;DHT22;5086;50.830;7.102;2023-04-24T06:05:54;9.80;99.90
10095;DHT22;5086;50.830;7.102;2023-04-24T06:08:22;9.90;99.90
10095;DHT22;5086;50.830;7.102;2023-04-24T06:10:51;9.90;99.90
10095;DHT22;5086;50.830;7.102;2023-04-24T06:13:18;9.90;99.90
10095;DHT22;5086;50.830;7.102;2023-04-24T06:15:47;9.90;99.90
10095;DHT22;5086;50.830;7.102;2023-04-24T06:18:14;9.90;99.90
10095;DHT22;5086;50.830;7.102;2023-04-24T06:20:40;9.90;99.90
10095;DHT22;5086;50.830;7.102;2023-04-24T06:23:07;9.90;99.90
10095;DHT22;5086;50.830;7.102;2023-04-24T06:25:36;9.90;99.90
10095;DHT22;5086;50.830;7.102;2023-04-24T06:28:03;9.90;99.90
10095;DHT22;5086;50.830;7.102;2023-04-24T06:30:30;9.90;99.90
10095;DHT22;5086;50.830;7.102;2023-04-24T06:33:03;9.90;99.90
10095;DHT22;5086;50.830;7.102;2023-04-24T06:35:30;10.00;99.90
10095;DHT22;5086;50.830;7.102;2023-04-24T06:37:57;10.10;99.90
10095;DHT22;5086;50.830;7.102;2023-04-24T06:40:26;10.00;99.90
10095;DHT22;5086;50.830;7.102;2023-04-24T06:42:54;10.00;99.90
10095;DHT22;5086;50.830;7.102;2023-04-24T06:45:21;10.00;99.90
10095;DHT22;5086;50.830;7.102;2023-04-24T06:47:48;10.00;99.90
10095;DHT22;5086;50.830;7.102;2023-04-24T06:50:16;9.90;99.90
10095;DHT22;5086;50.830;7.102;2023-04-24T06:52:42;9.80;99.90
10095;DHT22;5086;50.830;7.102;2023-04-24T06:55:09;9.80;99.90
10095;DHT22;5086;50.830;7.102;2023-04-24T06:57:37;9.80;99.90
10095;DHT22;5086;50.830;7.102;2023-04-24T07:00:07;9.70;99.90
10095;DHT22;5086;50.830;7.102;2023-04-24T07:02:34;9.60;99.90
10095;DHT22;5086;50.830;7.102;2023-04-24T07:05:01;9.60;99.90
10095;DHT22;5086;50.830;7.102;2023-04-24T07:07:28;9.60;99.90
10095;DHT22;5086;50.830;7.102;2023-04-24T07:09:55;9.70;99.90
10095;DHT22;5086;50.830;7.102;2023-04-24T07:12:22;9.60;99.90
10095;DHT22;5086;50.830;7.102;2023-04-24T07:14:49;9.70;99.90
10095;DHT22;5086;50.830;7.102;2023-04-24T07:17:18;9.70;99.90
10095;DHT22;5086;50.830;7.102;2023-04-24T07:19:44;9.70;99.90
10095;DHT22;5086;50.830;7.102;2023-04-24T07:22:11;9.60;99.90
10095;DHT22;5086;50.830;7.102;2023-04-24T07:24:42;9.60;99.90
10095;DHT22;5086;50.830;7.102;2023-04-24T07:27:09;9.60;99.90
10095;DHT22;5086;50.830;7.102;2023-04-24T07:29:38;9.60;99.90
10095;DHT22;5086;50.830;7.102;2023-04-24T07:32:05;9.60;99.90
10095;DHT22;5086;50.830;7.102;2023-04-24T07:34:34;9.60;99.90
10095;DHT22;5086;50.830;7.102;2023-04-24T07:37:01;9.40;99.90
10095;DHT22;5086;50.830;7.102;2023-04-24T07:39:28;9.40;99.90
10095;DHT22;5086;50.830;7.102;2023-04-24T07:41:55;9.40;99.90
10095;DHT22;5086;50.830;7.102;2023-04-24T07:44:24;9.40;99.90
10095;DHT22;5086;50.830;7.102;2023-04-24T07:46:51;9.40;99.90
10095;DHT22;5086;50.830;7.102;2023-04-24T07:49:17;9.40;99.90
10095;DHT22;5086;50.830;7.102;2023-04-24T07:51:46;9.40;99.90
10095;DHT22;5086;50.830;7.102;2023-04-24T07:54:13;9.40;99.90
10095;DHT22;5086;50.830;7.102;2023-04-24T07:56:40;9.30;99.90
10095;DHT22;5086;50.830;7.102;2023-04-24T07:59:08;9.30;99.90
10095;DHT22;5086;50.830;7.102;2023-04-24T08:01:36;9.20;99.90
10095;DHT22;5086;50.830;7.102;2023-04-24T08:04:02;9.20;99.90
10095;DHT22;5086;50.830;7.102;2023-04-24T08:06:30;9.00;99.90
10095;DHT22;5086;50.830;7.102;2023-04-24T08:08:59;8.80;99.90
10095;DHT22;5086;50.830;7.102;2023-04-24T08:11:29;8.60;99.90
10095;DHT22;5086;50.830;7.102;2023-04-24T08:13:58;8.60;99.90
10095;DHT22;5086;50.830;7.102;2023-04-24T08:16:29;8.50;99.90
10095;DHT22;5086;50.830;7.102;2023-04-24T08:18:56;8.40;99.90
10095;DHT22;5086;50.830;7.102;2023-04-24T08:21:23;8.50;99.90
10095;DHT22;5086;50.830;7.102;2023-04-24T08:23:58;8.60;99.90
10095;DHT22;5086;50.830;7.102;2023-04-24T08:26:30;8.50;99.90
10095;DHT22;5086;50.830;7.102;2023-04-24T08:28:59;8.60;99.90
10095;DHT22;5086;50.830;7.102;2023-04-24T08:31:26;8.60;99.90
10095;DHT22;5086;50.830;7.102;2023-04-24T08:33:55;8.60;99.90
10095;DHT22;5086;50.830;7.102;2023-04-24T08:36:21;8.50;99.90
10095;DHT22;5086;50.830;7.102;2023-04-24T08:38:49;8.50;99.90
10095;DHT22;5086;50.830;7.102;2023-04-24T08:41:19;8.40;99.90
10095;DHT22;5086;50.830;7.102;2023-04-24T08:43:47;8.30;99.90
10095;DHT22;5086;50.830;7.102;2023-04-24T08:46:15;8.30;99.90
10095;DHT22;5086;50.830;7.102;2023-04-24T08:48:43;8.20;99.90
10095;DHT22;5086;50.830;7.102;2023-04-24T08:51:10;8.20;99.90
10095;DHT22;5086;50.830;7.102;2023-04-24T08:53:37;8.10;99.90
10095;DHT22;5086;50.830;7.102;2023-04-24T08:56:05;8.10;99.90
10095;DHT22;5086;50.830;7.102;2023-04-24T08:58:35;8.00;99.90
10095;DHT22;5086;50.830;7.102;2023-04-24T09:01:02;7.90;99.90
10095;DHT22;5086;50.830;7.102;2023-04-24T09:03:32;7.90;99.90
10095;DHT22;5086;50.830;7.102;2023-04-24T09:06:00;8.00;99.90
10095;DHT22;5086;50.830;7.102;2023-04-24T09:08:28;7.90;99.90
10095;DHT22;5086;50.830;7.102;2023-04-24T09:10:56;8.00;99.90
10095;DHT22;5086;50.830;7.102;2023-04-24T09:13:24;8.00;99.90
10095;DHT22;5086;50.830;7.102;2023-04-24T09:15:52;8.00;99.90
10095;DHT22;5086;50.830;7.102;2023-04-24T09:18:19;8.00;99.90
10095;DHT22;5086;50.830;7.102;2023-04-24T09:21:03;8.00;99.90
10095;DHT22;5086;50.830;7.102;2023-04-24T09:23:31;8.00;99.90
10095;DHT22;5086;50.830;7.102;2023-04-24T09:26:00;7.90;99.90
10095;DHT22;5086;50.830;7.102;2023-04-24T09:28:29;8.00;99.90
10095;DHT22;5086;50.830;7.102;2023-04-24T09:31:09;8.00;99.90
10095;DHT22;5086;50.830;7.102;2023-04-24T09:33:36;8.00;99.90
10095;DHT22;5086;50.830;7.102;2023-04-24T09:36:04;8.00;99.90
10095;DHT22;5086;50.830;7.102;2023-04-24T09:38:33;8.10;99.90
10095;DHT22;5086;50.830;7.102;2023-04-24T09:41:08;8.20;99.90
10095;DHT22;5086;50.830;7.102;2023-04-24T09:43:38;8.20;99.90
10095;DHT22;5086;50.830;7.102;2023-04-24T09:46:08;8.30;99.90
10095;DHT22;5086;50.830;7.102;2023-04-24T09:48:37;8.30;99.90
10095;DHT22;5086;50.830;7.102;2023-04-24T09:51:08;8.40;99.90
10095;DHT22;5086;50.830;7.102;2023-04-24T09:53:36;8.50;99.90
10095;DHT22;5086;50.830;7.102;2023-04-24T09:56:07;8.60;99.90
10095;DHT22;5086;50.830;7.102;2023-04-24T09:58:35;8.70;99.90
10095;DHT22;5086;50.830;7.102;2023-04-24T10:01:03;8.70;99.90
10095;DHT22;5086;50.830;7.102;2023-04-24T10:03:31;8.70;99.90
10095;DHT22;5086;50.830;7.102;2023-04-24T10:05:59;8.80;99.90
10095;DHT22;5086;50.830;7.102;2023-04-24T10:08:27;8.90;99.90
10095;DHT22;5086;50.830;7.102;2023-04-24T10:11:00;9.00;99.90
10095;DHT22;5086;50.830;7.102;2023-04-24T10:13:28;9.10;99.90
10095;DHT22;5086;50.830;7.102;2023-04-24T10:15:56;9.20;99.90
10095;DHT22;5086;50.830;7.102;2023-04-24T10:18:25;9.20;99.90
10095;DHT22;5086;50.830;7.102;2023-04-24T10:20:54;9.20;99.90
10095;DHT22;5086;50.830;7.102;2023-04-24T10:23:22;9.20;99.90
10095;DHT22;5086;50.830;7.102;2023-04-24T10:25:49;9.30;99.90
10095;DHT22;5086;50.830;7.102;2023-04-24T10:28:18;9.40;99.90
10095;DHT22;5086;50.830;7.102;2023-04-24T10:30:45;9.40;99.90
10095;DHT22;5086;50.830;7.102;2023-04-24T10:33:14;9.40;99.90
10095;DHT22;5086;50.830;7.102;2023-04-24T10:35:44;9.60;99.90
10095;DHT22;5086;50.830;7.102;2023-04-24T10:38:18;9.60;99.90
10095;DHT22;5086;50.830;7.102;2023-04-24T10:40:49;9.70;99.90
10095;DHT22;5086;50.830;7.102;2023-04-24T10:43:17;9.80;99.90
10095;DHT22;5086;50.830;7.102;2023-04-24T10:46:00;9.80;99.90
10095;DHT22;5086;50.830;7.102;2023-04-24T10:48:28;9.80;99.90
10095;DHT22;5086;50.830;7.102;2023-04-24T10:50:55;9.80;99.90
10095;DHT22;5086;50.830;7.102;2023-04-24T10:53:24;9.90;99.90
10095;DHT22;5086;50.830;7.102;2023-04-24T10:55:57;10.00;99.90
10095;DHT22;5086;50.830;7.102;2023-04-24T10:58:36;10.10;99.90
10095;DHT22;5086;50.830;7.102;2023-04-24T11:01:03;10.30;99.90
10095;DHT22;5086;50.830;7.102;2023-04-24T11:03:32;10.30;99.90
10095;DHT22;5086;50.830;7.102;2023-04-24T11:06:03;10.40;99.90
10095;DHT22;5086;50.830;7.102;2023-04-24T11:08:36;10.40;99.90
10095;DHT22;5086;50.830;7.102;2023-04-24T11:11:08;10.40;99.90
10095;DHT22;5086;50.830;7.102;2023-04-24T11:14:01;10.50;99.90
10095;DHT22;5086;50.830;7.102;2023-04-24T11:16:29;10.60;99.90
10095;DHT22;5086;50.830;7.102;2023-04-24T11:19:01;10.50;99.90
10095;DHT22;5086;50.830;7.102;2023-04-24T11:21:31;10.50;99.90
10095;DHT22;5086;50.830;7.102;2023-04-24T11:24:24;10.50;99.90
10095;DHT22;5086;50.830;7.102;2023-04-24T11:26:51;10.40;99.90
10095;DHT22;5086;50.830;7.102;2023-04-24T11:29:19;10.30;99.90
10095;DHT22;5086;50.830;7.102;2023-04-24T11:31:46;10.30;99.90
10095;DHT22;5086;50.830;7.102;2023-04-24T11:34:15;10.10;99.90
10095;DHT22;5086;50.830;7.102;2023-04-24T11:36:43;10.00;99.90
10095;DHT22;5086;50.830;7.102;2023-04-24T11:39:13;9.70;99.90
10095;DHT22;5086;50.830;7.102;2023-04-24T11:41:43;9.60;99.90
10095;DHT22;5086;50.830;7.102;2023-04-24T11:44:09;9.50;99.90
10095;DHT22;5086;50.830;7.102;2023-04-24T11:46:37;9.40;99.90
10095;DHT22;5086;50.830;7.102;2023-04-24T11:49:08;9.50;99.90
10095;DHT22;5086;50.830;7.102;2023-04-24T11:51:35;9.60;99.90
10095;DHT22;5086;50.830;7.102;2023-04-24T11:54:02;9.70;99.90
10095;DHT22;5086;50.830;7.102;2023-04-24T11:56:30;9.80;99.90
10095;DHT22;5086;50.830;7.102;2023-04-24T11:58:57;10.00;99.90
10095;DHT22;5086;50.830;7.102;2023-04-24T12:01:24;10.30;99.90
10095;DHT22;5086;50.830;7.102;2023-04-24T12:03:51;10.50;99.90
10095;DHT22;5086;50.830;7.102;2023-04-24T12:06:25;10.80;99.90
10095;DHT22;5086;50.830;7.102;2023-04-24T12:08:52;11.10;99.90
10095;DHT22;5086;50.830;7.102;2023-04-24T12:11:20;11.30;99.90
10095;DHT22;5086;50.830;7.102;2023-04-24T12:13:49;11.50;99.90
10095;DHT22;5086;50.830;7.102;2023-04-24T12:16:15;11.60;99.90
10095;DHT22;5086;50.830;7.102;2023-04-24T12:18:44;11.70;99.90
10095;DHT22;5086;50.830;7.102;2023-04-24T12:21:18;11.80;99.90
10095;DHT22;5086;50.830;7.102;2023-04-24T12:23:45;12.00;99.90
10095;DHT22;5086;50.830;7.102;2023-04-24T12:26:15;12.00;99.90
10095;DHT22;5086;50.830;7.102;2023-04-24T12:28:42;12.20;99.90
10095;DHT22;5086;50.830;7.102;2023-04-24T12:31:13;12.20;99.90
10095;DHT22;5086;50.830;7.102;2023-04-24T12:33:40;12.20;99.90
10095;DHT22;5086;50.830;7.102;2023-04-24T12:36:10;11.90;99.90
10095;DHT22;5086;50.830;7.102;2023-04-24T12:38:37;11.80;99.90
10095;DHT22;5086;50.830;7.102;2023-04-24T12:41:08;11.60;99.90
10095;DHT22;5086;50.830;7.102;2023-04-24T12:43:36;11.30;99.90
10095;DHT22;5086;50.830;7.102;2023-04-24T12:46:04;11.10;99.90
10095;DHT22;5086;50.830;7.102;2023-04-24T12:48:32;10.90;99.90
10095;DHT22;5086;50.830;7.102;2023-04-24T12:51:00;10.70;99.90
10095;DHT22;5086;50.830;7.102;2023-04-24T12:53:27;10.70;99.90
10095;DHT22;5086;50.830;7.102;2023-04-24T12:55:56;10.80;99.90
10095;DHT22;5086;50.830;7.102;2023-04-24T12:58:24;10.90;99.90
10095;DHT22;5086;50.830;7.102;2023-04-24T13:00:51;11.20;99.90
10095;DHT22;5086;50.830;7.102;2023-04-24T13:03:18;11.50;99.90
10095;DHT22;5086;50.830;7.102;2023-04-24T13:05:46;11.70;99.90
10095;DHT22;5086;50.830;7.102;2023-04-24T13:08:13;11.70;99.90
10095;DHT22;5086;50.830;7.102;2023-04-24T13:10:40;11.90;99.90
10095;DHT22;5086;50.830;7.102;2023-04-24T13:13:07;12.00;99.90
10095;DHT22;5086;50.830;7.102;2023-04-24T13:15:34;12.10;99.90
10095;DHT22;5086;50.830;7.102;2023-04-24T13:18:01;12.10;99.90
10095;DHT22;5086;50.830;7.102;2023-04-24T13:20:28;12.00;99.90
10095;DHT22;5086;50.830;7.102;2023-04-24T13:22:56;12.10;99.90
10095;DHT22;5086;50.830;7.102;2023-04-24T13:25:24;12.10;99.90
10095;DHT22;5086;50.830;7.102;2023-04-24T13:27:51;12.10;99.90
10095;DHT22;5086;50.830;7.102;2023-04-24T13:30:19;12.20;99.90
10095;DHT22;5086;50.830;7.102;2023-04-24T13:32:45;12.10;99.90
10095;DHT22;5086;50.830;7.102;2023-04-24T13:35:13;12.10;99.90
10095;DHT22;5086;50.830;7.102;2023-04-24T13:37:40;12.00;99.90
10095;DHT22;5086;50.830;7.102;2023-04-24T13:40:09;12.00;99.90
10095;DHT22;5086;50.830;7.102;2023-04-24T13:42:36;11.90;99.90
10095;DHT22;5086;50.830;7.102;2023-04-24T13:45:04;11.90;99.90
10095;DHT22;5086;50.830;7.102;2023-04-24T13:47:31;11.50;99.90
10095;DHT22;5086;50.830;7.102;2023-04-24T13:49:58;11.40;99.90
10095;DHT22;5086;50.830;7.102;2023-04-24T13:52:25;11.40;99.90
10095;DHT22;5086;50.830;7.102;2023-04-24T13:54:52;11.70;99.90
10095;DHT22;5086;50.830;7.102;2023-04-24T13:57:20;11.70;99.90
10095;DHT22;5086;50.830;7.102;2023-04-24T13:59:47;12.00;99.90
10095;DHT22;5086;50.830;7.102;2023-04-24T14:02:14;12.10;99.90
10095;DHT22;5086;50.830;7.102;2023-04-24T14:04:41;12.10;99.90
10095;DHT22;5086;50.830;7.102;2023-04-24T14:07:08;12.10;99.90
10095;DHT22;5086;50.830;7.102;2023-04-24T14:09:35;12.20;99.90
10095;DHT22;5086;50.830;7.102;2023-04-24T14:12:02;12.30;99.90
10095;DHT22;5086;50.830;7.102;2023-04-24T14:14:31;12.40;99.90
10095;DHT22;5086;50.830;7.102;2023-04-24T14:16:58;12.40;99.90
10095;DHT22;5086;50.830;7.102;2023-04-24T14:19:25;12.30;99.90
10095;DHT22;5086;50.830;7.102;2023-04-24T14:21:52;12.50;99.90
10095;DHT22;5086;50.830;7.102;2023-04-24T14:24:21;12.70;99.90
10095;DHT22;5086;50.830;7.102;2023-04-24T14:26:47;12.90;99.90
10095;DHT22;5086;50.830;7.102;2023-04-24T14:29:14;13.00;99.90
10095;DHT22;5086;50.830;7.102;2023-04-24T14:31:43;12.80;99.90
10095;DHT22;5086;50.830;7.102;2023-04-24T14:34:10;12.60;99.90
10095;DHT22;5086;50.830;7.102;2023-04-24T14:36:38;12.70;99.90
10095;DHT22;5086;50.830;7.102;2023-04-24T14:39:06;12.80;99.90
10095;DHT22;5086;50.830;7.102;2023-04-24T14:41:33;12.90;99.90
10095;DHT22;5086;50.830;7.102;2023-04-24T14:44:01;13.00;99.90
10095;DHT22;5086;50.830;7.102;2023-04-24T14:46:28;12.90;99.90
10095;DHT22;5086;50.830;7.102;2023-04-24T14:48:57;12.70;99.90
10095;DHT22;5086;50.830;7.102;2023-04-24T14:51:24;12.60;99.90
10095;DHT22;5086;50.830;7.102;2023-04-24T14:53:52;12.50;99.90
10095;DHT22;5086;50.830;7.102;2023-04-24T14:56:19;12.60;99.90
10095;DHT22;5086;50.830;7.102;2023-04-24T14:58:46;12.60;99.90
10095;DHT22;5086;50.830;7.102;2023-04-24T15:01:12;12.70;99.90
10095;DHT22;5086;50.830;7.102;2023-04-24T15:03:39;12.70;99.90
10095;DHT22;5086;50.830;7.102;2023-04-24T15:06:07;12.70;99.90
10095;DHT22;5086;50.830;7.102;2023-04-24T15:08:34;12.80;99.90
10095;DHT22;5086;50.830;7.102;2023-04-24T15:11:01;12.90;99.90
10095;DHT22;5086;50.830;7.102;2023-04-24T15:13:28;12.70;99.90
10095;DHT22;5086;50.830;7.102;2023-04-24T15:15:55;12.50;99.90
10095;DHT22;5086;50.830;7.102;2023-04-24T15:18:22;12.40;99.90
10095;DHT22;5086;50.830;7.102;2023-04-24T15:20:49;12.40;99.90
10095;DHT22;5086;50.830;7.102;2023-04-24T15:23:17;12.40;99.90
10095;DHT22;5086;50.830;7.102;2023-04-24T15:25:44;12.40;99.90
10095;DHT22;5086;50.830;7.102;2023-04-24T15:28:11;12.40;99.90
10095;DHT22;5086;50.830;7.102;2023-04-24T15:30:39;12.40;99.90
10095;DHT22;5086;50.830;7.102;2023-04-24T15:33:05;12.30;99.90
10095;DHT22;5086;50.830;7.102;2023-04-24T15:35:33;12.30;99.90
10095;DHT22;5086;50.830;7.102;2023-04-24T15:38:02;12.40;99.90
10095;DHT22;5086;50.830;7.102;2023-04-24T15:40:34;12.40;99.90
10095;DHT22;5086;50.830;7.102;2023-04-24T15:43:01;12.60;99.90
10095;DHT22;5086;50.830;7.102;2023-04-24T15:45:28;12.50;99.90
10095;DHT22;5086;50.830;7.102;2023-04-24T15:47:55;12.40;99.90
10095;DHT22;5086;50.830;7.102;2023-04-24T15:50:22;12.40;99.90
10095;DHT22;5086;50.830;7.102;2023-04-24T15:52:49;12.40;99.90
10095;DHT22;5086;50.830;7.102;2023-04-24T15:55:17;12.50;99.90
10095;DHT22;5086;50.830;7.102;2023-04-24T15:57:45;12.50;99.90
10095;DHT22;5086;50.830;7.102;2023-04-24T16:00:12;12.60;99.90
10095;DHT22;5086;50.830;7.102;2023-04-24T16:02:39;12.60;99.90